Time;durP1;ratioP1;P1;durP2;ratioP2;P2;SDS_P1;SDS_P2;PMS_P1;PMS_P2;Temp;Humidity;BMP_temperature;BMP_pressure;BME280_temperature;BME280_humidity;BME280_pressure;Samples;Min_cycle;Max_cycle;Signal;HPM_P1;HPM_P2
2023/02/22 00:01:49;;;;;;;13.40;6.23;;;7.50;82.40;;;;;;5035640;28;20475;-78
2023/02/22 00:04:18;;;;;;;13.37;5.80;;;7.40;82.40;;;;;;5035844;28;20427;-78
2023/02/22 00:06:44;;;;;;;16.37;7.20;;;7.40;82.50;;;;;;5030014;28;20486;-77
2023/02/22 00:09:10;;;;;;;15.77;6.07;;;7.40;82.70;;;;;;5036679;28;20424;-78
2023/02/22 00:11:37;;;;;;;10.97;6.20;;;7.50;82.70;;;;;;5038896;28;20573;-78
2023/02/22 00:14:03;;;;;;;13.57;6.80;;;7.40;82.80;;;;;;5048942;28;20240;-78
2023/02/22 00:16:29;;;;;;;13.20;7.13;;;7.40;82.70;;;;;;5036960;28;20757;-79
2023/02/22 00:18:55;;;;;;;11.97;7.10;;;7.40;82.70;;;;;;5036994;28;20526;-79
2023/02/22 00:21:21;;;;;;;12.77;7.73;;;7.40;81.70;;;;;;5036044;28;20472;-80
2023/02/22 00:23:48;;;;;;;14.37;7.13;;;7.30;81.20;;;;;;5038950;28;20193;-80
2023/02/22 00:26:18;;;;;;;15.37;7.47;;;7.30;81.80;;;;;;5038227;28;20452;-80
2023/02/22 00:28:53;;;;;;;21.60;7.30;;;7.30;82.20;;;;;;5035594;28;20444;-80
2023/02/22 00:31:19;;;;;;;14.03;7.10;;;7.30;82.50;;;;;;5034429;28;20437;-77
2023/02/22 00:33:45;;;;;;;12.77;6.63;;;7.30;82.70;;;;;;5038466;28;20426;-80
2023/02/22 00:36:12;;;;;;;20.93;7.50;;;7.20;83.00;;;;;;5037548;28;20444;-80
2023/02/22 00:38:39;;;;;;;14.60;6.67;;;7.20;83.00;;;;;;5040022;28;20236;-79
2023/02/22 00:41:06;;;;;;;15.53;6.30;;;7.20;83.00;;;;;;5040665;28;20551;-79
2023/02/22 00:43:31;;;;;;;9.07;5.20;;;7.20;82.80;;;;;;5035336;28;20427;-79
2023/02/22 00:45:57;;;;;;;12.80;5.80;;;7.30;82.80;;;;;;5037161;28;20448;-78
2023/02/22 00:48:23;;;;;;;8.80;4.40;;;7.30;82.80;;;;;;5041185;28;20603;-81
2023/02/22 00:50:49;;;;;;;8.73;4.90;;;7.30;82.70;;;;;;5042121;28;20272;-80
2023/02/22 00:53:15;;;;;;;8.43;4.87;;;7.30;82.80;;;;;;5046837;28;20204;-80
2023/02/22 00:55:40;;;;;;;7.43;4.33;;;7.30;82.80;;;;;;5053031;28;20456;-78
2023/02/22 00:58:06;;;;;;;9.87;4.50;;;7.30;82.80;;;;;;5043696;28;20412;-81
2023/02/22 01:00:36;;;;;;;9.53;4.90;;;7.30;83.00;;;;;;5052455;28;20174;-78
2023/02/22 01:03:03;;;;;;;14.10;5.10;;;7.30;83.00;;;;;;5055560;28;20420;-79
2023/02/22 01:05:30;;;;;;;9.83;4.97;;;7.20;83.00;;;;;;5036125;28;20534;-79
2023/02/22 01:07:57;;;;;;;8.90;4.87;;;7.20;83.10;;;;;;5044200;28;20459;-75
2023/02/22 01:10:25;;;;;;;6.93;4.70;;;7.20;83.10;;;;;;5032465;28;20477;-78
2023/02/22 01:12:53;;;;;;;10.57;5.07;;;7.20;83.10;;;;;;5035150;28;20915;-79
2023/02/22 01:15:20;;;;;;;10.70;5.47;;;7.20;83.10;;;;;;5028236;28;20440;-79
2023/02/22 01:17:47;;;;;;;14.30;6.97;;;7.10;83.40;;;;;;5036279;28;20419;-80
2023/02/22 01:20:13;;;;;;;11.93;6.03;;;7.10;83.60;;;;;;5036008;28;20843;-78
2023/02/22 01:22:41;;;;;;;11.40;5.03;;;7.10;83.60;;;;;;5036827;28;20474;-79
2023/02/22 01:25:07;;;;;;;9.17;5.33;;;7.10;83.60;;;;;;5029307;28;20210;-77
2023/02/22 01:27:34;;;;;;;10.97;5.60;;;7.10;83.60;;;;;;5035567;28;20431;-78
2023/02/22 01:30:00;;;;;;;14.43;6.80;;;7.10;83.40;;;;;;5036799;28;20428;-78
2023/02/22 01:32:26;;;;;;;8.97;5.57;;;7.10;83.70;;;;;;5035639;28;20446;-80
2023/02/22 01:34:55;;;;;;;13.13;6.03;;;7.00;83.70;;;;;;5034539;28;20563;-79
2023/02/22 01:37:20;;;;;;;14.83;6.33;;;7.00;83.80;;;;;;5041945;28;20196;-78
2023/02/22 01:39:46;;;;;;;10.47;5.30;;;7.00;83.40;;;;;;5038411;28;20435;-79
2023/02/22 01:42:11;;;;;;;10.03;5.67;;;6.90;82.50;;;;;;5050320;28;20231;-78
2023/02/22 01:44:40;;;;;;;17.00;6.60;;;6.90;82.50;;;;;;5037929;28;20201;-77
2023/02/22 01:47:07;;;;;;;13.50;5.53;;;6.80;82.70;;;;;;5038193;28;20207;-78
2023/02/22 01:49:52;;;;;;;10.80;5.50;;;6.80;83.30;;;;;;5034655;28;20448;-79
2023/02/22 01:52:19;;;;;;;10.73;5.50;;;6.70;83.70;;;;;;5034360;28;20439;-80
2023/02/22 01:54:49;;;;;;;19.53;6.87;;;6.70;84.10;;;;;;5033733;28;20890;-80
2023/02/22 01:57:23;;;;;;;8.03;5.50;;;6.70;84.30;;;;;;5036344;28;20905;-80
2023/02/22 01:59:56;;;;;;;9.83;6.60;;;6.70;84.60;;;;;;5035966;28;20436;-78
2023/02/22 02:02:24;;;;;;;15.47;6.83;;;6.60;84.60;;;;;;5041481;28;20533;-79
2023/02/22 02:04:51;;;;;;;10.67;6.60;;;6.60;84.90;;;;;;5035459;28;20448;-78
2023/02/22 02:07:20;;;;;;;14.13;7.40;;;6.60;85.00;;;;;;5038432;28;20443;-77
2023/02/22 02:09:58;;;;;;;13.23;6.90;;;6.60;85.20;;;;;;5039552;28;20459;-77
2023/02/22 02:12:26;;;;;;;12.20;6.70;;;6.60;85.20;;;;;;5035747;28;20919;-81
2023/02/22 02:14:51;;;;;;;11.50;7.10;;;6.60;85.20;;;;;;5031088;28;20459;-78
2023/02/22 02:17:20;;;;;;;11.50;5.90;;;6.60;85.20;;;;;;5034752;28;20431;-79
2023/02/22 02:19:58;;;;;;;15.80;7.77;;;6.60;85.20;;;;;;5036073;28;20526;-78
2023/02/22 02:22:32;;;;;;;14.10;7.07;;;6.60;85.30;;;;;;5034497;28;20499;-77
2023/02/22 02:25:16;;;;;;;14.63;6.43;;;6.60;85.20;;;;;;5033293;28;20950;-81
2023/02/22 02:28:02;;;;;;;10.73;6.40;;;6.60;85.30;;;;;;5033066;28;20435;-78
2023/02/22 02:31:04;;;;;;;11.03;6.27;;;6.60;85.50;;;;;;5037862;28;20485;-80
2023/02/22 02:33:48;;;;;;;13.10;7.27;;;6.60;85.30;;;;;;5035205;28;20428;-79
2023/02/22 02:36:29;;;;;;;17.10;7.20;;;6.60;85.50;;;;;;5035589;28;20443;-81
2023/02/22 02:39:51;;;;;;;12.03;6.53;;;6.60;85.50;;;;;;5038749;28;21198;-80
2023/02/22 02:42:21;;;;;;;10.70;6.33;;;6.60;85.50;;;;;;5014979;28;21021;-78
2023/02/22 02:44:54;;;;;;;14.03;6.60;;;6.60;85.50;;;;;;5032598;28;20466;-79
2023/02/22 02:47:29;;;;;;;12.70;6.77;;;6.60;85.60;;;;;;5032919;28;20588;-79
2023/02/22 02:50:03;;;;;;;9.80;6.40;;;6.60;85.30;;;;;;5033129;28;20432;-79
2023/02/22 02:52:32;;;;;;;12.47;6.63;;;6.60;85.30;;;;;;5016615;28;20439;-78
2023/02/22 02:55:01;;;;;;;10.50;5.80;;;6.50;85.20;;;;;;5007638;28;20465;-77
2023/02/22 02:57:26;;;;;;;10.20;6.00;;;6.50;84.90;;;;;;5030333;28;20420;-77
2023/02/22 02:59:52;;;;;;;11.70;6.33;;;6.50;84.90;;;;;;5025954;28;20907;-78
2023/02/22 03:02:38;;;;;;;11.00;6.33;;;6.50;84.70;;;;;;5009944;28;20228;-77
2023/02/22 03:05:07;;;;;;;12.30;6.50;;;6.50;84.60;;;;;;5020630;28;20625;-78
2023/02/22 03:07:54;;;;;;;13.23;7.03;;;6.50;84.70;;;;;;5025024;28;21125;-77
2023/02/22 03:10:36;;;;;;;10.80;6.73;;;6.50;84.90;;;;;;5031181;28;20416;-77
2023/02/22 03:13:14;;;;;;;11.47;6.20;;;6.50;85.20;;;;;;5028314;28;20427;-77
2023/02/22 03:16:10;;;;;;;17.80;8.33;;;6.40;85.30;;;;;;5025270;28;20490;-77
2023/02/22 03:18:54;;;;;;;12.67;7.43;;;6.50;85.50;;;;;;5031281;28;20485;-78
2023/02/22 03:21:32;;;;;;;16.87;8.23;;;6.50;85.50;;;;;;5033872;28;20460;-77
2023/02/22 03:24:28;;;;;;;14.27;8.23;;;6.40;85.30;;;;;;5046416;28;20437;-79
2023/02/22 03:27:16;;;;;;;18.63;7.20;;;6.40;85.50;;;;;;5029067;28;20828;-78
2023/02/22 03:29:44;;;;;;;14.47;8.13;;;6.40;85.60;;;;;;5035046;28;20420;-76
2023/02/22 03:32:15;;;;;;;21.23;7.53;;;6.30;85.70;;;;;;5034757;28;20420;-77
2023/02/22 03:34:49;;;;;;;15.37;7.77;;;6.40;85.60;;;;;;5029753;28;20815;-78
2023/02/22 03:37:40;;;;;;;16.30;7.73;;;6.30;85.70;;;;;;5034462;28;20499;-79
2023/02/22 03:40:12;;;;;;;13.20;8.20;;;6.30;85.70;;;;;;5035260;28;20923;-79
2023/02/22 03:42:42;;;;;;;13.03;6.87;;;6.20;85.70;;;;;;5037558;28;20488;-77
2023/02/22 03:45:09;;;;;;;13.00;7.07;;;6.20;86.00;;;;;;5047644;28;20531;-78
2023/02/22 03:47:39;;;;;;;11.83;7.17;;;6.20;86.00;;;;;;5045193;28;20423;-78
2023/02/22 03:50:13;;;;;;;16.07;8.10;;;6.20;86.00;;;;;;5053762;28;20420;-77
2023/02/22 03:52:40;;;;;;;21.13;8.00;;;6.20;86.20;;;;;;5047763;28;20435;-78
2023/02/22 03:55:09;;;;;;;15.57;7.50;;;6.20;86.00;;;;;;5026673;28;20460;-78
2023/02/22 03:57:38;;;;;;;20.73;8.27;;;6.20;86.00;;;;;;5026841;28;20792;-77
2023/02/22 04:00:06;;;;;;;16.60;8.63;;;6.30;85.70;;;;;;5028949;28;20479;-78
2023/02/22 04:02:32;;;;;;;17.13;8.27;;;6.30;85.50;;;;;;5034157;28;20471;-79
2023/02/22 04:04:58;;;;;;;16.87;7.60;;;6.20;85.30;;;;;;5027514;28;20483;-78
2023/02/22 04:07:23;;;;;;;14.60;8.20;;;6.10;85.50;;;;;;5032375;28;20212;-77
2023/02/22 04:09:49;;;;;;;16.40;8.67;;;6.10;85.60;;;;;;5036597;28;20416;-77
2023/02/22 04:12:15;;;;;;;17.90;8.63;;;6.10;85.60;;;;;;5037245;28;20189;-77
2023/02/22 04:14:40;;;;;;;15.57;8.60;;;6.10;85.50;;;;;;5033233;28;20241;-78
2023/02/22 04:17:06;;;;;;;16.30;9.27;;;6.10;85.70;;;;;;5032234;28;20222;-79
2023/02/22 04:19:31;;;;;;;15.37;8.00;;;6.10;85.70;;;;;;5040089;28;20209;-79
2023/02/22 04:21:57;;;;;;;15.93;8.50;;;6.10;85.70;;;;;;5037807;28;20213;-79
2023/02/22 04:24:23;;;;;;;15.53;7.67;;;6.10;85.70;;;;;;5038163;28;20234;-78
2023/02/22 04:26:49;;;;;;;16.70;7.83;;;6.10;85.70;;;;;;5039415;28;20192;-79
2023/02/22 04:29:14;;;;;;;13.77;8.23;;;6.10;85.90;;;;;;5034808;28;20188;-80
2023/02/22 04:31:40;;;;;;;15.30;8.20;;;6.10;85.90;;;;;;5036668;28;20859;-79
2023/02/22 04:34:05;;;;;;;15.77;8.40;;;6.10;85.90;;;;;;5037780;28;20189;-78
2023/02/22 04:36:31;;;;;;;18.80;8.77;;;6.00;85.90;;;;;;5030689;28;20184;-79
2023/02/22 04:38:58;;;;;;;16.30;8.20;;;6.10;85.90;;;;;;5038132;28;20216;-78
2023/02/22 04:41:23;;;;;;;14.43;8.53;;;5.90;86.00;;;;;;5036951;28;20232;-78
2023/02/22 04:43:50;;;;;;;16.87;8.47;;;5.90;86.30;;;;;;5037123;28;20420;-79
2023/02/22 04:46:15;;;;;;;14.30;8.20;;;5.90;86.30;;;;;;5034480;28;20836;-79
2023/02/22 04:48:41;;;;;;;14.17;8.50;;;5.90;86.30;;;;;;5037126;28;20549;-79
2023/02/22 04:51:07;;;;;;;18.83;8.50;;;5.90;86.30;;;;;;5035580;28;20243;-78
2023/02/22 04:53:34;;;;;;;13.93;7.70;;;5.80;86.50;;;;;;5035770;28;20190;-77
2023/02/22 04:55:59;;;;;;;17.27;7.87;;;5.80;86.60;;;;;;5034681;28;20455;-80
2023/02/22 04:58:25;;;;;;;12.57;7.27;;;5.80;86.60;;;;;;5036914;28;20442;-79
2023/02/22 05:00:51;;;;;;;14.73;8.50;;;5.80;86.60;;;;;;5039604;28;20941;-80
2023/02/22 05:03:17;;;;;;;17.07;8.03;;;5.70;86.90;;;;;;5039860;28;20177;-79
2023/02/22 05:05:43;;;;;;;15.70;7.80;;;5.70;86.90;;;;;;5034700;28;20463;-80
2023/02/22 05:08:08;;;;;;;17.30;8.20;;;5.70;87.10;;;;;;5034253;28;20560;-80
2023/02/22 05:10:34;;;;;;;16.87;8.67;;;5.70;87.10;;;;;;5034518;28;20189;-79
2023/02/22 05:12:59;;;;;;;16.80;8.43;;;5.70;87.10;;;;;;5033219;28;20216;-78
2023/02/22 05:15:25;;;;;;;16.70;8.80;;;5.80;86.90;;;;;;5027010;28;20279;-81
2023/02/22 05:17:52;;;;;;;15.43;8.30;;;5.70;86.90;;;;;;5033553;28;20189;-80
2023/02/22 05:20:27;;;;;;;15.80;9.50;;;5.70;86.90;;;;;;5034932;28;20274;-81
2023/02/22 05:22:57;;;;;;;18.90;9.30;;;5.70;87.00;;;;;;5031846;28;20851;-80
2023/02/22 05:25:23;;;;;;;16.33;8.80;;;5.70;86.90;;;;;;5042858;28;20778;-79
2023/02/22 05:27:56;;;;;;;18.53;11.13;;;5.70;87.00;;;;;;5034544;28;20431;-81
2023/02/22 05:30:24;;;;;;;18.50;8.97;;;5.60;86.80;;;;;;5031017;28;20428;-79
2023/02/22 05:32:50;;;;;;;15.90;8.63;;;5.60;86.80;;;;;;5032973;28;20432;-80
2023/02/22 05:35:17;;;;;;;16.40;9.27;;;5.60;86.80;;;;;;5035450;28;20459;-79
2023/02/22 05:37:43;;;;;;;20.37;8.73;;;5.60;86.80;;;;;;5030321;28;20957;-79
2023/02/22 05:40:10;;;;;;;17.90;8.47;;;5.60;86.80;;;;;;5036016;28;20436;-80
2023/02/22 05:42:36;;;;;;;16.83;8.43;;;5.60;86.80;;;;;;5036041;28;20215;-80
2023/02/22 05:45:02;;;;;;;14.13;8.07;;;5.60;86.80;;;;;;5033160;28;20490;-83
2023/02/22 05:47:28;;;;;;;13.83;8.40;;;5.60;87.00;;;;;;5036413;28;20204;-79
2023/02/22 05:49:54;;;;;;;17.77;8.23;;;5.60;86.90;;;;;;5035359;28;20442;-76
2023/02/22 05:52:20;;;;;;;18.77;9.17;;;5.60;87.00;;;;;;5027904;28;20911;-77
2023/02/22 05:54:45;;;;;;;20.77;8.77;;;5.60;86.90;;;;;;5020498;28;21034;-76
2023/02/22 05:57:11;;;;;;;16.03;9.20;;;5.60;86.90;;;;;;5027446;28;20431;-77
2023/02/22 05:59:36;;;;;;;17.60;9.80;;;5.60;86.80;;;;;;5025956;28;20731;-77
2023/02/22 06:02:02;;;;;;;19.97;9.03;;;5.50;86.60;;;;;;5020040;28;20610;-77
2023/02/22 06:04:28;;;;;;;20.10;9.30;;;5.60;86.50;;;;;;5026627;28;20243;-77
2023/02/22 06:06:53;;;;;;;17.57;9.60;;;5.60;86.00;;;;;;5019902;28;20186;-77
2023/02/22 06:09:19;;;;;;;16.80;8.90;;;5.60;85.90;;;;;;5024703;28;20190;-77
2023/02/22 06:11:44;;;;;;;17.80;9.40;;;5.60;86.00;;;;;;5020743;28;20623;-80
2023/02/22 06:14:10;;;;;;;23.90;9.50;;;5.60;86.20;;;;;;5034590;28;20209;-80
2023/02/22 06:16:35;;;;;;;15.87;8.70;;;5.60;86.50;;;;;;5033636;28;20227;-82
2023/02/22 06:19:01;;;;;;;19.60;10.10;;;5.50;86.60;;;;;;5041301;28;20181;-82
2023/02/22 06:21:27;;;;;;;19.87;9.60;;;5.50;86.80;;;;;;5043609;28;20211;-79
2023/02/22 06:23:52;;;;;;;25.03;9.80;;;5.40;86.60;;;;;;5052385;28;20181;-81
2023/02/22 06:26:18;;;;;;;20.60;9.33;;;5.40;86.80;;;;;;5043945;28;20216;-81
2023/02/22 06:28:45;;;;;;;16.27;9.00;;;5.50;86.90;;;;;;5050103;28;20189;-81
2023/02/22 06:31:11;;;;;;;17.17;9.30;;;5.50;86.50;;;;;;5053824;28;20423;-82
2023/02/22 06:33:36;;;;;;;18.70;9.50;;;5.40;86.50;;;;;;5056443;28;20496;-81
2023/02/22 06:36:02;;;;;;;18.70;9.97;;;5.40;86.50;;;;;;5048207;28;20239;-81
2023/02/22 06:38:28;;;;;;;21.50;9.00;;;5.50;86.50;;;;;;5048506;28;20196;-81
2023/02/22 06:40:54;;;;;;;15.90;9.73;;;5.50;86.50;;;;;;5054802;28;20431;-82
2023/02/22 06:43:20;;;;;;;19.43;9.53;;;5.50;86.50;;;;;;5040084;28;20181;-82
2023/02/22 06:45:46;;;;;;;16.13;9.93;;;5.60;86.20;;;;;;5038075;28;20455;-83
2023/02/22 06:48:12;;;;;;;18.10;9.50;;;5.60;86.20;;;;;;5032863;28;20479;-81
2023/02/22 06:50:37;;;;;;;17.90;9.60;;;5.70;86.20;;;;;;5035865;28;20645;-81
2023/02/22 06:53:03;;;;;;;18.53;10.03;;;5.80;85.90;;;;;;5036983;28;20192;-81
2023/02/22 06:55:31;;;;;;;18.60;9.20;;;5.80;85.60;;;;;;5034082;28;20205;-81
2023/02/22 06:57:56;;;;;;;16.27;9.23;;;5.90;85.60;;;;;;5036310;28;20423;-81
2023/02/22 07:00:24;;;;;;;16.57;9.37;;;5.90;85.30;;;;;;5033200;28;20934;-80
2023/02/22 07:02:50;;;;;;;17.03;9.90;;;5.90;85.00;;;;;;5037064;28;20204;-79
2023/02/22 07:05:19;;;;;;;17.43;10.00;;;6.00;84.90;;;;;;5038770;28;20539;-82
2023/02/22 07:07:45;;;;;;;15.93;9.80;;;6.10;84.90;;;;;;5039902;28;20416;-80
2023/02/22 07:10:22;;;;;;;18.80;10.10;;;6.10;84.60;;;;;;5038337;28;20931;-81
2023/02/22 07:12:48;;;;;;;18.13;9.67;;;6.20;84.40;;;;;;5038067;28;20902;-79
2023/02/22 07:15:17;;;;;;;15.20;8.90;;;6.30;84.40;;;;;;5034560;28;20479;-81
2023/02/22 07:17:42;;;;;;;22.27;10.87;;;6.30;84.00;;;;;;5034357;28;20739;-80
2023/02/22 07:20:10;;;;;;;19.30;10.90;;;6.40;83.70;;;;;;5030243;28;20457;-80
2023/02/22 07:22:36;;;;;;;17.67;9.80;;;6.50;83.30;;;;;;5035159;28;20276;-79
2023/02/22 07:25:02;;;;;;;16.80;9.57;;;6.50;83.10;;;;;;5031876;28;20452;-81
2023/02/22 07:27:28;;;;;;;20.53;10.40;;;6.50;82.80;;;;;;5036502;28;20442;-81
2023/02/22 07:29:53;;;;;;;24.23;11.10;;;6.60;82.70;;;;;;5034807;28;20181;-80
2023/02/22 07:32:19;;;;;;;19.60;11.73;;;6.50;82.50;;;;;;5033985;28;20679;-80
2023/02/22 07:34:44;;;;;;;26.00;11.00;;;6.60;82.40;;;;;;5035391;28;20214;-81
2023/02/22 07:37:10;;;;;;;21.47;11.50;;;6.60;82.20;;;;;;5035382;28;20192;-80
2023/02/22 07:39:36;;;;;;;21.23;10.90;;;6.70;81.90;;;;;;5037183;28;20267;-79
2023/02/22 07:42:02;;;;;;;29.03;12.57;;;6.80;81.70;;;;;;5035553;28;20197;-80
2023/02/22 07:44:28;;;;;;;25.47;11.77;;;6.80;81.50;;;;;;5035021;28;20534;-79
2023/02/22 07:46:53;;;;;;;23.93;11.60;;;6.80;81.50;;;;;;5024379;28;20436;-80
2023/02/22 07:49:19;;;;;;;21.07;10.60;;;6.80;81.20;;;;;;5042201;28;20264;-80
2023/02/22 07:51:45;;;;;;;24.37;10.30;;;6.80;81.10;;;;;;5041869;28;20949;-81
2023/02/22 07:54:10;;;;;;;21.53;11.10;;;6.80;81.50;;;;;;5042858;28;20601;-81
2023/02/22 07:56:36;;;;;;;27.20;11.93;;;6.80;81.50;;;;;;5036998;28;20265;-80
2023/02/22 07:59:01;;;;;;;22.20;11.67;;;6.90;81.70;;;;;;5042203;28;20193;-81
2023/02/22 08:01:27;;;;;;;19.77;11.10;;;7.10;81.40;;;;;;5037621;28;20212;-81
2023/02/22 08:03:52;;;;;;;30.13;11.70;;;7.10;80.00;;;;;;5041884;28;20904;-79
2023/02/22 08:06:19;;;;;;;18.33;9.90;;;7.10;80.00;;;;;;5038915;28;20208;-81
2023/02/22 08:08:45;;;;;;;19.30;10.87;;;7.10;80.00;;;;;;5040622;28;20620;-80
2023/02/22 08:11:11;;;;;;;21.40;10.77;;;7.20;80.00;;;;;;5040341;28;20436;-79
2023/02/22 08:13:38;;;;;;;23.07;10.40;;;7.30;79.90;;;;;;5039631;28;20193;-79
2023/02/22 08:16:04;;;;;;;24.03;10.70;;;7.40;79.60;;;;;;5039509;28;20292;-80
2023/02/22 08:18:29;;;;;;;16.47;10.30;;;7.60;79.20;;;;;;5041293;28;20843;-79
2023/02/22 08:20:55;;;;;;;18.83;10.07;;;7.70;78.90;;;;;;5042551;28;20192;-81
2023/02/22 08:23:25;;;;;;;19.80;10.87;;;7.70;78.90;;;;;;5044164;28;20636;-79
2023/02/22 08:25:51;;;;;;;20.40;11.10;;;7.80;78.60;;;;;;5039234;28;20208;-80
2023/02/22 08:28:21;;;;;;;25.97;12.20;;;7.90;78.30;;;;;;5044990;28;20426;-80
2023/02/22 08:30:47;;;;;;;18.10;11.13;;;8.00;77.80;;;;;;5044261;28;20424;-80
2023/02/22 08:33:17;;;;;;;20.87;11.33;;;8.10;78.00;;;;;;5042134;28;20776;-81
2023/02/22 08:35:43;;;;;;;20.17;10.60;;;8.20;78.00;;;;;;5042377;28;20478;-81
2023/02/22 08:38:25;;;;;;;22.27;11.03;;;8.30;77.30;;;;;;5041799;28;20420;-78
2023/02/22 08:40:51;;;;;;;20.43;10.80;;;8.40;77.30;;;;;;5038656;28;20934;-80
2023/02/22 08:43:18;;;;;;;22.57;11.50;;;8.50;77.00;;;;;;5039625;28;20468;-80
2023/02/22 08:45:44;;;;;;;18.70;11.10;;;8.50;77.00;;;;;;5034574;28;20503;-80
2023/02/22 08:48:10;;;;;;;20.87;10.30;;;8.50;76.70;;;;;;5037219;28;20502;-80
2023/02/22 08:50:36;;;;;;;17.90;10.87;;;8.60;76.80;;;;;;5037037;28;20448;-80
2023/02/22 08:53:04;;;;;;;17.37;10.87;;;8.70;76.40;;;;;;5037944;28;20272;-79
2023/02/22 08:55:32;;;;;;;21.50;11.47;;;8.80;76.20;;;;;;5039144;28;20451;-80
2023/02/22 08:58:00;;;;;;;22.20;10.93;;;8.90;75.70;;;;;;5038832;28;20519;-80
2023/02/22 09:00:28;;;;;;;22.30;11.60;;;9.00;75.10;;;;;;5037842;28;20493;-80
2023/02/22 09:02:53;;;;;;;19.97;11.20;;;9.10;74.60;;;;;;5041358;28;20456;-81
2023/02/22 09:05:19;;;;;;;18.90;10.70;;;9.20;74.50;;;;;;5036653;28;20832;-79
2023/02/22 09:07:45;;;;;;;20.27;11.13;;;9.30;74.30;;;;;;5040512;28;20185;-80
2023/02/22 09:10:14;;;;;;;25.90;11.63;;;9.30;74.20;;;;;;5040670;28;20424;-79
2023/02/22 09:12:40;;;;;;;22.50;11.00;;;9.40;74.20;;;;;;5035213;28;20551;-80
2023/02/22 09:15:07;;;;;;;19.30;11.67;;;9.50;73.90;;;;;;5062858;28;20527;-79
2023/02/22 09:17:36;;;;;;;19.50;11.50;;;9.50;73.60;;;;;;5057657;28;20423;-79
2023/02/22 09:20:05;;;;;;;20.47;10.93;;;9.50;73.60;;;;;;5058600;28;20399;-81
2023/02/22 09:22:31;;;;;;;19.53;12.10;;;9.60;73.90;;;;;;5058317;28;20463;-79
2023/02/22 09:24:56;;;;;;;17.07;10.57;;;9.70;73.30;;;;;;5050533;28;20548;-79
2023/02/22 09:27:22;;;;;;;24.40;12.33;;;9.90;73.20;;;;;;5056625;28;20173;-80
2023/02/22 09:29:48;;;;;;;21.53;11.00;;;10.00;72.60;;;;;;5058294;28;20185;-78
2023/02/22 09:32:16;;;;;;;21.50;11.47;;;10.10;72.40;;;;;;5045799;28;20228;-81
2023/02/22 09:34:44;;;;;;;22.37;12.80;;;10.20;72.30;;;;;;5040917;28;20467;-79
2023/02/22 09:37:11;;;;;;;20.50;11.63;;;10.40;71.70;;;;;;5040481;28;20424;-80
2023/02/22 09:39:36;;;;;;;22.30;10.47;;;10.50;71.30;;;;;;5039785;28;20420;-80
2023/02/22 09:42:34;;;;;;;19.37;9.77;;;10.70;70.70;;;;;;5040022;28;20974;-79
2023/02/22 09:45:02;;;;;;;22.50;10.47;;;10.80;70.80;;;;;;5034187;28;20193;-80
2023/02/22 09:47:55;;;;;;;19.57;11.23;;;10.90;71.10;;;;;;5036672;28;20435;-80
2023/02/22 09:50:34;;;;;;;13.87;9.07;;;11.10;71.00;;;;;;5037022;28;20411;-80
2023/02/22 09:53:04;;;;;;;24.93;9.97;;;11.20;70.20;;;;;;5038137;28;20419;-79
2023/02/22 09:55:35;;;;;;;16.00;9.37;;;11.40;69.80;;;;;;5031605;28;20447;-80
2023/02/22 09:58:09;;;;;;;18.73;10.03;;;11.50;69.80;;;;;;5036879;28;20928;-80
2023/02/22 10:00:42;;;;;;;14.67;9.50;;;11.70;69.50;;;;;;5029700;28;20506;-80
2023/02/22 10:03:16;;;;;;;14.07;8.77;;;11.90;68.80;;;;;;5036226;28;20525;-80
2023/02/22 10:05:51;;;;;;;16.27;9.40;;;12.00;68.30;;;;;;5035149;28;20462;-80
2023/02/22 10:08:18;;;;;;;12.97;8.97;;;12.20;67.90;;;;;;5040656;28;20469;-80
2023/02/22 10:10:51;;;;;;;18.87;10.00;;;12.20;67.70;;;;;;5035052;28;20447;-79
2023/02/22 10:13:29;;;;;;;13.33;7.80;;;12.40;67.50;;;;;;5034680;28;20523;-80
2023/02/22 10:15:55;;;;;;;14.13;8.57;;;12.60;67.70;;;;;;5034739;28;20462;-80
2023/02/22 10:18:54;;;;;;;22.70;10.80;;;12.70;66.70;;;;;;5034466;28;20419;-80
2023/02/22 10:21:38;;;;;;;18.13;9.07;;;12.80;66.30;;;;;;5034774;28;20201;-80
2023/02/22 10:24:15;;;;;;;19.20;9.87;;;12.90;66.10;;;;;;5034437;28;20503;-81
2023/02/22 10:26:43;;;;;;;17.73;8.63;;;12.90;65.80;;;;;;5029700;28;20455;-81
2023/02/22 10:29:38;;;;;;;18.90;8.80;;;12.90;66.00;;;;;;5037029;28;20420;-80
2023/02/22 10:32:05;;;;;;;17.07;9.47;;;12.90;66.10;;;;;;5035662;28;20932;-80
2023/02/22 10:34:47;;;;;;;17.33;8.97;;;13.00;65.70;;;;;;5030371;28;20718;-80
2023/02/22 10:37:27;;;;;;;18.93;8.80;;;12.90;65.30;;;;;;5030724;28;20457;-81
2023/02/22 10:40:19;;;;;;;17.73;9.23;;;12.80;65.40;;;;;;5035202;28;20428;-79
2023/02/22 10:42:46;;;;;;;16.00;9.50;;;12.80;65.70;;;;;;5035043;28;20471;-80
2023/02/22 10:45:28;;;;;;;15.17;8.53;;;12.90;65.30;;;;;;5031987;28;20449;-79
2023/02/22 10:47:57;;;;;;;19.53;11.10;;;13.00;65.10;;;;;;5030893;28;20427;-79
2023/02/22 10:50:25;;;;;;;16.60;9.00;;;13.00;65.00;;;;;;5035655;28;20456;-80
2023/02/22 10:52:50;;;;;;;15.73;9.37;;;13.20;65.30;;;;;;5036459;28;20489;-79
2023/02/22 10:55:16;;;;;;;16.23;9.83;;;13.60;65.00;;;;;;5030579;28;20452;-78
2023/02/22 10:57:48;;;;;;;14.03;9.10;;;13.90;63.20;;;;;;5034212;28;20554;-79
2023/02/22 11:00:31;;;;;;;18.00;9.77;;;14.20;61.70;;;;;;5035360;28;20199;-80
2023/02/22 11:03:02;;;;;;;17.20;9.43;;;14.50;62.00;;;;;;5037784;28;20602;-80
2023/02/22 11:05:40;;;;;;;21.37;9.93;;;14.90;60.30;;;;;;5037035;28;20877;-80
2023/02/22 11:08:14;;;;;;;17.13;10.10;;;15.10;59.20;;;;;;5032323;28;20437;-78
2023/02/22 11:10:42;;;;;;;16.40;9.50;;;15.10;59.30;;;;;;5035426;28;21198;-79
2023/02/22 11:13:38;;;;;;;21.03;11.13;;;15.00;59.30;;;;;;5034834;28;20957;-80
2023/02/22 11:16:24;;;;;;;16.60;9.77;;;15.00;59.70;;;;;;4993831;28;21125;-81
2023/02/22 11:19:05;;;;;;;16.13;9.80;;;15.00;59.60;;;;;;4998165;28;20974;-80
2023/02/22 11:21:31;;;;;;;11.73;8.73;;;14.80;59.70;;;;;;4986991;28;20566;-80
2023/02/22 11:24:07;;;;;;;18.10;9.10;;;14.80;60.90;;;;;;4980597;28;20428;-80
2023/02/22 11:26:42;;;;;;;18.60;9.83;;;15.10;59.90;;;;;;5002214;28;20562;-80
2023/02/22 11:29:30;;;;;;;18.60;9.60;;;15.20;59.60;;;;;;4994528;28;20450;-81
2023/02/22 11:31:56;;;;;;;15.50;9.40;;;15.10;59.70;;;;;;5005456;28;20409;-79
2023/02/22 11:34:33;;;;;;;15.70;10.03;;;15.10;60.00;;;;;;5007003;28;20501;-80
2023/02/22 11:37:28;;;;;;;21.23;12.03;;;15.00;60.10;;;;;;4998783;28;20189;-80
2023/02/22 11:40:18;;;;;;;20.33;10.70;;;14.90;60.30;;;;;;4947155;29;20462;-80
2023/02/22 11:42:44;;;;;;;20.57;9.90;;;14.50;61.70;;;;;;4950076;29;21015;-80
2023/02/22 11:45:23;;;;;;;19.80;10.43;;;14.60;62.30;;;;;;4939849;29;20474;-81
2023/02/22 11:47:58;;;;;;;18.43;9.63;;;14.90;61.90;;;;;;4935104;29;20422;-79
2023/02/22 11:50:27;;;;;;;19.23;10.53;;;15.10;61.00;;;;;;4933900;29;20426;-79
2023/02/22 11:53:36;;;;;;;17.97;11.57;;;15.10;61.00;;;;;;4958516;28;20434;-80
2023/02/22 11:56:30;;;;;;;24.23;11.40;;;14.90;61.60;;;;;;4959529;28;20566;-79
2023/02/22 11:58:58;;;;;;;20.87;11.20;;;14.60;62.80;;;;;;4976234;28;20445;-79
2023/02/22 12:01:34;;;;;;;21.70;10.60;;;14.70;62.80;;;;;;4980780;28;20484;-79
2023/02/22 12:04:37;;;;;;;24.97;11.73;;;14.90;62.30;;;;;;4985455;28;20440;-79
2023/02/22 12:07:25;;;;;;;22.10;11.27;;;15.00;62.30;;;;;;4987483;28;20427;-79
2023/02/22 12:09:51;;;;;;;15.43;10.00;;;14.90;63.10;;;;;;4975462;28;20435;-79
2023/02/22 12:12:35;;;;;;;22.33;11.83;;;15.10;62.60;;;;;;4983588;28;20432;-79
2023/02/22 12:15:39;;;;;;;22.37;11.10;;;15.30;61.20;;;;;;4988193;28;20207;-79
2023/02/22 12:18:46;;;;;;;17.43;10.30;;;15.10;61.60;;;;;;5040724;28;20423;-79
2023/02/22 12:21:15;;;;;;;19.60;10.50;;;15.20;61.90;;;;;;5037925;28;20450;-78
2023/02/22 12:23:53;;;;;;;22.13;11.77;;;15.10;62.20;;;;;;5039662;28;20515;-79
2023/02/22 12:26:32;;;;;;;19.07;10.53;;;15.00;62.50;;;;;;5028118;28;20472;-78
2023/02/22 12:29:12;;;;;;;19.13;10.20;;;14.90;62.00;;;;;;5034258;28;20420;-79
2023/02/22 12:31:44;;;;;;;20.67;12.03;;;15.00;62.00;;;;;;5033136;28;20416;-79
2023/02/22 12:34:20;;;;;;;19.30;11.40;;;15.20;61.90;;;;;;5038807;28;20442;-78
2023/02/22 12:37:19;;;;;;;20.40;12.63;;;15.30;61.60;;;;;;5030040;28;20533;-77
2023/02/22 12:40:12;;;;;;;21.17;12.30;;;15.30;61.60;;;;;;5033740;28;20442;-78
2023/02/22 12:42:56;;;;;;;21.60;11.73;;;15.20;62.00;;;;;;5031196;28;20493;-80
2023/02/22 12:45:38;;;;;;;25.80;12.30;;;15.40;61.70;;;;;;5031113;28;20452;-79
2023/02/22 12:48:25;;;;;;;20.70;11.30;;;15.50;61.60;;;;;;5040911;28;20420;-79
2023/02/22 12:50:57;;;;;;;18.27;10.90;;;15.40;61.30;;;;;;5041063;28;20829;-78
2023/02/22 12:53:33;;;;;;;22.00;11.50;;;15.40;61.00;;;;;;5040453;28;20763;-79
2023/02/22 12:56:17;;;;;;;23.17;12.77;;;15.20;61.60;;;;;;5035014;28;20461;-79
2023/02/22 12:58:53;;;;;;;22.67;10.73;;;15.30;61.60;;;;;;5039693;28;20426;-79
2023/02/22 13:01:26;;;;;;;20.83;11.03;;;15.30;61.00;;;;;;5038227;28;20458;-80